sensor_id;sensor_type;location;lat;lon;timestamp;P1;durP1;ratioP1;P2;durP2;ratioP2
18738;SDS011;9498;51.862;19.460;2023-01-13T00:02:17;15.37;;;7.20;;
18738;SDS011;9498;51.862;19.460;2023-01-13T00:04:45;17.57;;;7.10;;
18738;SDS011;9498;51.862;19.460;2023-01-13T00:07:12;19.53;;;6.70;;
18738;SDS011;9498;51.862;19.460;2023-01-13T00:09:41;15.53;;;6.90;;
18738;SDS011;9498;51.862;19.460;2023-01-13T00:12:08;16.57;;;6.90;;
18738;SDS011;9498;51.862;19.460;2023-01-13T00:14:35;18.30;;;7.27;;
18738;SDS011;9498;51.862;19.460;2023-01-13T00:17:03;15.23;;;6.97;;
18738;SDS011;9498;51.862;19.460;2023-01-13T00:19:30;17.47;;;6.70;;
18738;SDS011;9498;51.862;19.460;2023-01-13T00:21:57;12.43;;;6.23;;
18738;SDS011;9498;51.862;19.460;2023-01-13T00:24:24;15.47;;;6.70;;
18738;SDS011;9498;51.862;19.460;2023-01-13T00:26:53;21.07;;;6.80;;
18738;SDS011;9498;51.862;19.460;2023-01-13T00:29:20;15.07;;;6.17;;
18738;SDS011;9498;51.862;19.460;2023-01-13T00:31:47;12.03;;;5.80;;
18738;SDS011;9498;51.862;19.460;2023-01-13T00:34:15;13.97;;;6.17;;
18738;SDS011;9498;51.862;19.460;2023-01-13T00:36:42;16.83;;;6.40;;
18738;SDS011;9498;51.862;19.460;2023-01-13T00:39:09;14.37;;;6.77;;
18738;SDS011;9498;51.862;19.460;2023-01-13T00:41:37;11.03;;;5.70;;
18738;SDS011;9498;51.862;19.460;2023-01-13T00:44:23;15.40;;;7.03;;
18738;SDS011;9498;51.862;19.460;2023-01-13T00:46:50;18.80;;;6.87;;
18738;SDS011;9498;51.862;19.460;2023-01-13T00:49:17;14.17;;;6.77;;
18738;SDS011;9498;51.862;19.460;2023-01-13T00:51:45;17.10;;;7.03;;
18738;SDS011;9498;51.862;19.460;2023-01-13T00:54:12;14.40;;;6.57;;
18738;SDS011;9498;51.862;19.460;2023-01-13T00:56:39;12.97;;;6.40;;
18738;SDS011;9498;51.862;19.460;2023-01-13T00:59:06;16.77;;;6.80;;
18738;SDS011;9498;51.862;19.460;2023-01-13T01:01:35;17.43;;;7.13;;
18738;SDS011;9498;51.862;19.460;2023-01-13T01:04:02;16.50;;;6.63;;
18738;SDS011;9498;51.862;19.460;2023-01-13T01:06:30;20.17;;;7.27;;
18738;SDS011;9498;51.862;19.460;2023-01-13T01:08:57;18.30;;;7.30;;
18738;SDS011;9498;51.862;19.460;2023-01-13T01:11:25;20.27;;;7.10;;
18738;SDS011;9498;51.862;19.460;2023-01-13T01:13:53;14.40;;;6.83;;
18738;SDS011;9498;51.862;19.460;2023-01-13T01:16:21;15.67;;;7.43;;
18738;SDS011;9498;51.862;19.460;2023-01-13T01:18:51;19.55;;;7.95;;
18738;SDS011;9498;51.862;19.460;2023-01-13T01:21:19;16.30;;;8.10;;
18738;SDS011;9498;51.862;19.460;2023-01-13T01:23:46;16.30;;;7.47;;
18738;SDS011;9498;51.862;19.460;2023-01-13T01:26:14;18.40;;;8.30;;
18738;SDS011;9498;51.862;19.460;2023-01-13T01:28:42;17.33;;;7.50;;
18738;SDS011;9498;51.862;19.460;2023-01-13T01:31:11;12.97;;;7.20;;
18738;SDS011;9498;51.862;19.460;2023-01-13T01:33:39;14.80;;;7.60;;
18738;SDS011;9498;51.862;19.460;2023-01-13T01:36:08;15.87;;;7.43;;
18738;SDS011;9498;51.862;19.460;2023-01-13T01:38:37;14.90;;;7.20;;
18738;SDS011;9498;51.862;19.460;2023-01-13T01:41:04;13.33;;;6.83;;
18738;SDS011;9498;51.862;19.460;2023-01-13T01:43:49;16.63;;;7.23;;
18738;SDS011;9498;51.862;19.460;2023-01-13T01:46:26;19.77;;;7.43;;
18738;SDS011;9498;51.862;19.460;2023-01-13T01:48:54;19.17;;;7.07;;
18738;SDS011;9498;51.862;19.460;2023-01-13T01:51:23;19.88;;;8.32;;
18738;SDS011;9498;51.862;19.460;2023-01-13T01:53:51;15.53;;;7.03;;
18738;SDS011;9498;51.862;19.460;2023-01-13T01:56:19;19.67;;;7.50;;
18738;SDS011;9498;51.862;19.460;2023-01-13T01:58:47;18.13;;;7.37;;
18738;SDS011;9498;51.862;19.460;2023-01-13T02:01:16;15.30;;;6.97;;
18738;SDS011;9498;51.862;19.460;2023-01-13T02:03:44;18.20;;;8.00;;
18738;SDS011;9498;51.862;19.460;2023-01-13T02:06:12;16.23;;;6.90;;
18738;SDS011;9498;51.862;19.460;2023-01-13T02:08:42;16.80;;;7.33;;
18738;SDS011;9498;51.862;19.460;2023-01-13T02:11:24;17.37;;;8.00;;
18738;SDS011;9498;51.862;19.460;2023-01-13T02:14:06;18.43;;;7.57;;
18738;SDS011;9498;51.862;19.460;2023-01-13T02:16:33;15.37;;;7.70;;
18738;SDS011;9498;51.862;19.460;2023-01-13T02:19:01;17.83;;;8.60;;
18738;SDS011;9498;51.862;19.460;2023-01-13T02:21:40;19.17;;;8.60;;
18738;SDS011;9498;51.862;19.460;2023-01-13T02:24:28;17.95;;;10.35;;
18738;SDS011;9498;51.862;19.460;2023-01-13T02:27:35;21.20;;;9.00;;
18738;SDS011;9498;51.862;19.460;2023-01-13T02:30:10;19.90;;;8.63;;
18738;SDS011;9498;51.862;19.460;2023-01-13T02:33:02;18.20;;;8.33;;
18738;SDS011;9498;51.862;19.460;2023-01-13T02:35:34;27.53;;;9.77;;
18738;SDS011;9498;51.862;19.460;2023-01-13T02:38:02;21.20;;;9.27;;
18738;SDS011;9498;51.862;19.460;2023-01-13T02:40:32;26.07;;;10.07;;
18738;SDS011;9498;51.862;19.460;2023-01-13T02:43:01;19.37;;;9.23;;
18738;SDS011;9498;51.862;19.460;2023-01-13T02:45:49;18.70;;;10.37;;
18738;SDS011;9498;51.862;19.460;2023-01-13T02:48:18;21.27;;;9.77;;
18738;SDS011;9498;51.862;19.460;2023-01-13T02:50:47;23.57;;;10.07;;
18738;SDS011;9498;51.862;19.460;2023-01-13T02:53:17;22.53;;;10.37;;
18738;SDS011;9498;51.862;19.460;2023-01-13T02:55:47;23.53;;;11.27;;
18738;SDS011;9498;51.862;19.460;2023-01-13T02:58:16;18.37;;;9.90;;
18738;SDS011;9498;51.862;19.460;2023-01-13T03:00:44;18.80;;;10.23;;
18738;SDS011;9498;51.862;19.460;2023-01-13T03:03:13;19.37;;;9.13;;
18738;SDS011;9498;51.862;19.460;2023-01-13T03:05:40;19.13;;;9.30;;
18738;SDS011;9498;51.862;19.460;2023-01-13T03:08:10;18.67;;;9.70;;
18738;SDS011;9498;51.862;19.460;2023-01-13T03:10:48;15.70;;;9.03;;
18738;SDS011;9498;51.862;19.460;2023-01-13T03:13:20;27.03;;;10.53;;
18738;SDS011;9498;51.862;19.460;2023-01-13T03:15:53;19.07;;;9.50;;
18738;SDS011;9498;51.862;19.460;2023-01-13T03:18:26;17.10;;;9.27;;
18738;SDS011;9498;51.862;19.460;2023-01-13T03:21:02;20.60;;;9.90;;
18738;SDS011;9498;51.862;19.460;2023-01-13T03:23:32;22.47;;;10.70;;
18738;SDS011;9498;51.862;19.460;2023-01-13T03:26:02;18.47;;;9.83;;
18738;SDS011;9498;51.862;19.460;2023-01-13T03:28:32;23.00;;;12.23;;
18738;SDS011;9498;51.862;19.460;2023-01-13T03:31:00;17.43;;;10.27;;
18738;SDS011;9498;51.862;19.460;2023-01-13T03:33:32;23.57;;;10.63;;
18738;SDS011;9498;51.862;19.460;2023-01-13T03:36:01;20.73;;;10.10;;
18738;SDS011;9498;51.862;19.460;2023-01-13T03:38:30;18.43;;;10.40;;
18738;SDS011;9498;51.862;19.460;2023-01-13T03:40:59;20.80;;;10.20;;
18738;SDS011;9498;51.862;19.460;2023-01-13T03:43:27;19.97;;;9.57;;
18738;SDS011;9498;51.862;19.460;2023-01-13T03:46:15;20.23;;;9.53;;
18738;SDS011;9498;51.862;19.460;2023-01-13T03:48:45;20.63;;;8.63;;
18738;SDS011;9498;51.862;19.460;2023-01-13T03:51:16;18.57;;;9.33;;
18738;SDS011;9498;51.862;19.460;2023-01-13T03:53:45;18.57;;;9.70;;
18738;SDS011;9498;51.862;19.460;2023-01-13T03:56:14;18.07;;;9.43;;
18738;SDS011;9498;51.862;19.460;2023-01-13T03:58:43;20.35;;;8.52;;
18738;SDS011;9498;51.862;19.460;2023-01-13T04:01:15;16.10;;;8.00;;
18738;SDS011;9498;51.862;19.460;2023-01-13T04:03:43;17.60;;;8.83;;
18738;SDS011;9498;51.862;19.460;2023-01-13T04:06:14;16.67;;;8.43;;
18738;SDS011;9498;51.862;19.460;2023-01-13T04:08:43;16.90;;;8.17;;
18738;SDS011;9498;51.862;19.460;2023-01-13T04:11:16;26.43;;;8.13;;
18738;SDS011;9498;51.862;19.460;2023-01-13T04:13:44;12.17;;;7.57;;
18738;SDS011;9498;51.862;19.460;2023-01-13T04:16:11;12.13;;;7.57;;
18738;SDS011;9498;51.862;19.460;2023-01-13T04:18:39;12.90;;;7.10;;
18738;SDS011;9498;51.862;19.460;2023-01-13T04:21:06;17.20;;;7.33;;
18738;SDS011;9498;51.862;19.460;2023-01-13T04:23:35;15.47;;;6.77;;
18738;SDS011;9498;51.862;19.460;2023-01-13T04:26:02;17.13;;;6.83;;
18738;SDS011;9498;51.862;19.460;2023-01-13T04:28:29;14.10;;;6.90;;
18738;SDS011;9498;51.862;19.460;2023-01-13T04:30:57;15.10;;;6.27;;
18738;SDS011;9498;51.862;19.460;2023-01-13T04:33:24;13.80;;;6.85;;
18738;SDS011;9498;51.862;19.460;2023-01-13T04:35:52;15.93;;;6.90;;
18738;SDS011;9498;51.862;19.460;2023-01-13T04:38:20;16.03;;;6.77;;
18738;SDS011;9498;51.862;19.460;2023-01-13T04:40:48;10.93;;;6.33;;
18738;SDS011;9498;51.862;19.460;2023-01-13T04:43:15;13.17;;;5.70;;
18738;SDS011;9498;51.862;19.460;2023-01-13T04:45:43;11.30;;;5.73;;
18738;SDS011;9498;51.862;19.460;2023-01-13T04:48:10;10.63;;;5.93;;
18738;SDS011;9498;51.862;19.460;2023-01-13T04:50:37;10.87;;;5.53;;
18738;SDS011;9498;51.862;19.460;2023-01-13T04:53:05;13.77;;;5.40;;
18738;SDS011;9498;51.862;19.460;2023-01-13T04:55:32;11.60;;;5.40;;
18738;SDS011;9498;51.862;19.460;2023-01-13T04:58:02;10.93;;;5.53;;
18738;SDS011;9498;51.862;19.460;2023-01-13T05:00:29;13.80;;;5.80;;
18738;SDS011;9498;51.862;19.460;2023-01-13T05:02:56;13.80;;;5.50;;
18738;SDS011;9498;51.862;19.460;2023-01-13T05:05:24;9.03;;;5.10;;
18738;SDS011;9498;51.862;19.460;2023-01-13T05:07:52;20.00;;;5.90;;
18738;SDS011;9498;51.862;19.460;2023-01-13T05:10:19;11.37;;;5.63;;
18738;SDS011;9498;51.862;19.460;2023-01-13T05:12:46;11.03;;;4.90;;
18738;SDS011;9498;51.862;19.460;2023-01-13T05:15:32;13.82;;;5.40;;
18738;SDS011;9498;51.862;19.460;2023-01-13T05:18:17;12.97;;;5.00;;
18738;SDS011;9498;51.862;19.460;2023-01-13T05:20:44;11.47;;;5.00;;
18738;SDS011;9498;51.862;19.460;2023-01-13T05:23:12;10.30;;;5.03;;
18738;SDS011;9498;51.862;19.460;2023-01-13T05:25:56;13.67;;;5.43;;
18738;SDS011;9498;51.862;19.460;2023-01-13T05:28:23;11.25;;;5.97;;
18738;SDS011;9498;51.862;19.460;2023-01-13T05:30:52;14.77;;;5.53;;
18738;SDS011;9498;51.862;19.460;2023-01-13T05:33:19;11.00;;;5.33;;
18738;SDS011;9498;51.862;19.460;2023-01-13T05:35:46;13.90;;;5.20;;
18738;SDS011;9498;51.862;19.460;2023-01-13T05:38:14;18.80;;;5.97;;
18738;SDS011;9498;51.862;19.460;2023-01-13T05:40:42;13.70;;;5.53;;
18738;SDS011;9498;51.862;19.460;2023-01-13T05:43:28;12.47;;;5.70;;
18738;SDS011;9498;51.862;19.460;2023-01-13T05:45:59;13.20;;;5.70;;
18738;SDS011;9498;51.862;19.460;2023-01-13T05:48:27;11.93;;;5.30;;
18738;SDS011;9498;51.862;19.460;2023-01-13T05:50:54;15.97;;;6.57;;
18738;SDS011;9498;51.862;19.460;2023-01-13T05:53:22;16.20;;;7.60;;
18738;SDS011;9498;51.862;19.460;2023-01-13T05:55:49;16.17;;;6.63;;
18738;SDS011;9498;51.862;19.460;2023-01-13T05:58:17;16.03;;;6.80;;
18738;SDS011;9498;51.862;19.460;2023-01-13T06:00:45;14.93;;;6.67;;
18738;SDS011;9498;51.862;19.460;2023-01-13T06:03:15;13.53;;;6.03;;
18738;SDS011;9498;51.862;19.460;2023-01-13T06:05:44;19.30;;;6.40;;
18738;SDS011;9498;51.862;19.460;2023-01-13T06:08:12;13.53;;;6.23;;
18738;SDS011;9498;51.862;19.460;2023-01-13T06:10:39;18.03;;;5.90;;
18738;SDS011;9498;51.862;19.460;2023-01-13T06:13:07;9.50;;;6.00;;
18738;SDS011;9498;51.862;19.460;2023-01-13T06:15:35;14.53;;;6.73;;
18738;SDS011;9498;51.862;19.460;2023-01-13T06:18:02;20.67;;;9.23;;
18738;SDS011;9498;51.862;19.460;2023-01-13T06:20:31;11.73;;;6.60;;
18738;SDS011;9498;51.862;19.460;2023-01-13T06:22:58;16.03;;;6.87;;
18738;SDS011;9498;51.862;19.460;2023-01-13T06:25:29;15.07;;;6.07;;
18738;SDS011;9498;51.862;19.460;2023-01-13T06:27:58;14.63;;;5.93;;
18738;SDS011;9498;51.862;19.460;2023-01-13T06:30:25;16.23;;;6.53;;
18738;SDS011;9498;51.862;19.460;2023-01-13T06:32:54;15.33;;;6.13;;
18738;SDS011;9498;51.862;19.460;2023-01-13T06:35:26;15.03;;;6.50;;
18738;SDS011;9498;51.862;19.460;2023-01-13T06:37:56;18.10;;;6.63;;
18738;SDS011;9498;51.862;19.460;2023-01-13T06:40:25;17.47;;;5.97;;
18738;SDS011;9498;51.862;19.460;2023-01-13T06:42:52;14.47;;;6.00;;
18738;SDS011;9498;51.862;19.460;2023-01-13T06:45:38;27.10;;;6.80;;
18738;SDS011;9498;51.862;19.460;2023-01-13T06:48:05;15.23;;;6.60;;
18738;SDS011;9498;51.862;19.460;2023-01-13T06:50:32;15.63;;;6.17;;
18738;SDS011;9498;51.862;19.460;2023-01-13T06:53:01;10.10;;;5.47;;
18738;SDS011;9498;51.862;19.460;2023-01-13T06:55:28;13.53;;;6.00;;
18738;SDS011;9498;51.862;19.460;2023-01-13T06:57:56;15.10;;;6.10;;
18738;SDS011;9498;51.862;19.460;2023-01-13T07:00:24;12.57;;;5.60;;
18738;SDS011;9498;51.862;19.460;2023-01-13T07:02:52;14.30;;;5.80;;
18738;SDS011;9498;51.862;19.460;2023-01-13T07:05:19;9.93;;;5.57;;
18738;SDS011;9498;51.862;19.460;2023-01-13T07:07:46;11.47;;;5.60;;
18738;SDS011;9498;51.862;19.460;2023-01-13T07:10:15;11.40;;;5.77;;
18738;SDS011;9498;51.862;19.460;2023-01-13T07:12:46;14.63;;;5.67;;
18738;SDS011;9498;51.862;19.460;2023-01-13T07:15:31;17.43;;;6.87;;
18738;SDS011;9498;51.862;19.460;2023-01-13T07:17:59;17.47;;;6.43;;
18738;SDS011;9498;51.862;19.460;2023-01-13T07:20:26;14.73;;;5.93;;
18738;SDS011;9498;51.862;19.460;2023-01-13T07:22:53;20.30;;;8.17;;
18738;SDS011;9498;51.862;19.460;2023-01-13T07:25:22;15.13;;;6.53;;
18738;SDS011;9498;51.862;19.460;2023-01-13T07:27:49;18.27;;;8.13;;
18738;SDS011;9498;51.862;19.460;2023-01-13T07:30:17;14.80;;;6.30;;
18738;SDS011;9498;51.862;19.460;2023-01-13T07:32:44;15.70;;;6.17;;
18738;SDS011;9498;51.862;19.460;2023-01-13T07:35:12;17.50;;;6.67;;
18738;SDS011;9498;51.862;19.460;2023-01-13T07:37:45;17.20;;;6.13;;
18738;SDS011;9498;51.862;19.460;2023-01-13T07:40:14;12.13;;;6.20;;
18738;SDS011;9498;51.862;19.460;2023-01-13T07:42:43;13.67;;;6.00;;
18738;SDS011;9498;51.862;19.460;2023-01-13T07:45:28;17.83;;;7.13;;
18738;SDS011;9498;51.862;19.460;2023-01-13T07:47:55;19.63;;;10.93;;
18738;SDS011;9498;51.862;19.460;2023-01-13T07:50:22;16.97;;;6.47;;
18738;SDS011;9498;51.862;19.460;2023-01-13T07:52:50;15.57;;;6.50;;
18738;SDS011;9498;51.862;19.460;2023-01-13T07:55:17;19.63;;;8.23;;
18738;SDS011;9498;51.862;19.460;2023-01-13T07:57:46;24.07;;;10.03;;
18738;SDS011;9498;51.862;19.460;2023-01-13T08:00:14;13.70;;;5.77;;
18738;SDS011;9498;51.862;19.460;2023-01-13T08:02:41;13.33;;;5.47;;
18738;SDS011;9498;51.862;19.460;2023-01-13T08:05:08;13.63;;;5.90;;
18738;SDS011;9498;51.862;19.460;2023-01-13T08:07:35;19.10;;;6.20;;
18738;SDS011;9498;51.862;19.460;2023-01-13T08:10:05;11.03;;;5.20;;
18738;SDS011;9498;51.862;19.460;2023-01-13T08:12:32;13.70;;;5.10;;
18738;SDS011;9498;51.862;19.460;2023-01-13T08:15:18;10.87;;;4.93;;
18738;SDS011;9498;51.862;19.460;2023-01-13T08:17:46;14.03;;;6.10;;
18738;SDS011;9498;51.862;19.460;2023-01-13T08:20:13;13.13;;;5.93;;
18738;SDS011;9498;51.862;19.460;2023-01-13T08:22:40;12.57;;;5.20;;
18738;SDS011;9498;51.862;19.460;2023-01-13T08:25:08;10.87;;;4.80;;
18738;SDS011;9498;51.862;19.460;2023-01-13T08:27:35;15.77;;;6.00;;
18738;SDS011;9498;51.862;19.460;2023-01-13T08:30:03;15.97;;;6.03;;
18738;SDS011;9498;51.862;19.460;2023-01-13T08:32:32;17.17;;;5.40;;
18738;SDS011;9498;51.862;19.460;2023-01-13T08:34:59;10.53;;;5.13;;
18738;SDS011;9498;51.862;19.460;2023-01-13T08:37:26;12.00;;;5.03;;
18738;SDS011;9498;51.862;19.460;2023-01-13T08:39:54;11.10;;;5.40;;
18738;SDS011;9498;51.862;19.460;2023-01-13T08:42:21;14.27;;;6.10;;
18738;SDS011;9498;51.862;19.460;2023-01-13T08:44:51;12.80;;;5.87;;
18738;SDS011;9498;51.862;19.460;2023-01-13T08:47:18;18.87;;;8.90;;
18738;SDS011;9498;51.862;19.460;2023-01-13T08:49:47;15.13;;;6.00;;
18738;SDS011;9498;51.862;19.460;2023-01-13T08:52:14;14.87;;;5.67;;
18738;SDS011;9498;51.862;19.460;2023-01-13T08:54:42;16.80;;;5.67;;
18738;SDS011;9498;51.862;19.460;2023-01-13T08:57:09;8.63;;;4.70;;
18738;SDS011;9498;51.862;19.460;2023-01-13T08:59:36;11.17;;;5.10;;
18738;SDS011;9498;51.862;19.460;2023-01-13T09:02:05;11.60;;;5.40;;
18738;SDS011;9498;51.862;19.460;2023-01-13T09:04:35;15.10;;;5.50;;
18738;SDS011;9498;51.862;19.460;2023-01-13T09:07:04;13.37;;;4.90;;
18738;SDS011;9498;51.862;19.460;2023-01-13T09:09:31;11.07;;;4.80;;
18738;SDS011;9498;51.862;19.460;2023-01-13T09:11:58;11.23;;;4.70;;
18738;SDS011;9498;51.862;19.460;2023-01-13T09:14:43;13.33;;;4.97;;
18738;SDS011;9498;51.862;19.460;2023-01-13T09:17:10;9.70;;;4.20;;
18738;SDS011;9498;51.862;19.460;2023-01-13T09:19:38;9.33;;;4.57;;
18738;SDS011;9498;51.862;19.460;2023-01-13T09:22:08;9.50;;;4.30;;
18738;SDS011;9498;51.862;19.460;2023-01-13T09:24:35;9.63;;;4.17;;
18738;SDS011;9498;51.862;19.460;2023-01-13T09:27:03;9.03;;;4.00;;
18738;SDS011;9498;51.862;19.460;2023-01-13T09:29:30;11.37;;;4.20;;
18738;SDS011;9498;51.862;19.460;2023-01-13T09:31:57;10.70;;;4.40;;
18738;SDS011;9498;51.862;19.460;2023-01-13T09:34:25;10.67;;;3.90;;
18738;SDS011;9498;51.862;19.460;2023-01-13T09:37:11;15.10;;;4.60;;
18738;SDS011;9498;51.862;19.460;2023-01-13T09:39:38;10.17;;;3.77;;
18738;SDS011;9498;51.862;19.460;2023-01-13T09:42:10;17.20;;;4.43;;
18738;SDS011;9498;51.862;19.460;2023-01-13T09:44:58;9.43;;;4.07;;
18738;SDS011;9498;51.862;19.460;2023-01-13T09:47:29;12.80;;;4.20;;
18738;SDS011;9498;51.862;19.460;2023-01-13T09:49:58;9.87;;;4.13;;
18738;SDS011;9498;51.862;19.460;2023-01-13T09:52:30;9.07;;;3.80;;
18738;SDS011;9498;51.862;19.460;2023-01-13T09:55:00;9.27;;;3.80;;
18738;SDS011;9498;51.862;19.460;2023-01-13T09:57:29;9.20;;;3.80;;
18738;SDS011;9498;51.862;19.460;2023-01-13T09:59:58;8.50;;;3.97;;
18738;SDS011;9498;51.862;19.460;2023-01-13T10:02:29;6.73;;;3.40;;
18738;SDS011;9498;51.862;19.460;2023-01-13T10:05:01;8.90;;;3.40;;
18738;SDS011;9498;51.862;19.460;2023-01-13T10:07:29;7.80;;;3.60;;
18738;SDS011;9498;51.862;19.460;2023-01-13T10:09:59;11.60;;;3.60;;
18738;SDS011;9498;51.862;19.460;2023-01-13T10:12:28;10.70;;;3.80;;
18738;SDS011;9498;51.862;19.460;2023-01-13T10:15:14;7.33;;;3.50;;
18738;SDS011;9498;51.862;19.460;2023-01-13T10:17:43;8.53;;;3.30;;
18738;SDS011;9498;51.862;19.460;2023-01-13T10:20:14;8.70;;;3.63;;
18738;SDS011;9498;51.862;19.460;2023-01-13T10:22:49;10.07;;;3.40;;
18738;SDS011;9498;51.862;19.460;2023-01-13T10:25:25;14.10;;;3.83;;
18738;SDS011;9498;51.862;19.460;2023-01-13T10:27:54;8.77;;;3.40;;
18738;SDS011;9498;51.862;19.460;2023-01-13T10:30:23;6.47;;;3.20;;
18738;SDS011;9498;51.862;19.460;2023-01-13T10:32:56;10.50;;;3.50;;
18738;SDS011;9498;51.862;19.460;2023-01-13T10:38:13;8.93;;;3.23;;
18738;SDS011;9498;51.862;19.460;2023-01-13T10:40:47;6.63;;;3.30;;
18738;SDS011;9498;51.862;19.460;2023-01-13T10:43:14;7.03;;;3.13;;
18738;SDS011;9498;51.862;19.460;2023-01-13T10:45:42;9.47;;;3.33;;
18738;SDS011;9498;51.862;19.460;2023-01-13T10:48:17;7.67;;;3.30;;
18738;SDS011;9498;51.862;19.460;2023-01-13T10:50:44;13.57;;;4.27;;
18738;SDS011;9498;51.862;19.460;2023-01-13T10:53:17;10.13;;;3.67;;
18738;SDS011;9498;51.862;19.460;2023-01-13T10:55:58;10.37;;;3.77;;
18738;SDS011;9498;51.862;19.460;2023-01-13T10:58:25;10.60;;;3.73;;
18738;SDS011;9498;51.862;19.460;2023-01-13T11:00:57;8.33;;;3.67;;
18738;SDS011;9498;51.862;19.460;2023-01-13T11:03:25;11.93;;;4.27;;
18738;SDS011;9498;51.862;19.460;2023-01-13T11:06:00;13.07;;;3.87;;
18738;SDS011;9498;51.862;19.460;2023-01-13T11:08:28;8.53;;;3.60;;
18738;SDS011;9498;51.862;19.460;2023-01-13T11:10:58;9.67;;;3.60;;
18738;SDS011;9498;51.862;19.460;2023-01-13T11:13:27;6.00;;;3.07;;
18738;SDS011;9498;51.862;19.460;2023-01-13T11:15:57;10.37;;;4.00;;
18738;SDS011;9498;51.862;19.460;2023-01-13T11:18:29;9.03;;;3.67;;
18738;SDS011;9498;51.862;19.460;2023-01-13T11:20:58;9.90;;;3.57;;
18738;SDS011;9498;51.862;19.460;2023-01-13T11:23:28;6.97;;;3.40;;
18738;SDS011;9498;51.862;19.460;2023-01-13T11:25:59;6.63;;;3.40;;
18738;SDS011;9498;51.862;19.460;2023-01-13T11:28:38;4.67;;;3.00;;
18738;SDS011;9498;51.862;19.460;2023-01-13T11:31:09;13.03;;;3.70;;
18738;SDS011;9498;51.862;19.460;2023-01-13T11:33:40;9.50;;;3.60;;
18738;SDS011;9498;51.862;19.460;2023-01-13T11:36:10;8.13;;;3.80;;
18738;SDS011;9498;51.862;19.460;2023-01-13T11:38:39;11.10;;;3.70;;
18738;SDS011;9498;51.862;19.460;2023-01-13T11:41:13;10.47;;;3.70;;
18738;SDS011;9498;51.862;19.460;2023-01-13T11:43:42;6.83;;;3.50;;
18738;SDS011;9498;51.862;19.460;2023-01-13T11:46:12;9.03;;;3.30;;
18738;SDS011;9498;51.862;19.460;2023-01-13T11:48:40;7.37;;;2.87;;
18738;SDS011;9498;51.862;19.460;2023-01-13T11:51:10;9.60;;;3.37;;
18738;SDS011;9498;51.862;19.460;2023-01-13T11:53:45;8.57;;;3.50;;
18738;SDS011;9498;51.862;19.460;2023-01-13T11:56:21;7.57;;;3.20;;
18738;SDS011;9498;51.862;19.460;2023-01-13T11:59:03;10.83;;;3.50;;
18738;SDS011;9498;51.862;19.460;2023-01-13T12:01:36;10.50;;;3.20;;
18738;SDS011;9498;51.862;19.460;2023-01-13T12:04:12;6.97;;;3.03;;
18738;SDS011;9498;51.862;19.460;2023-01-13T12:06:43;11.87;;;3.97;;
18738;SDS011;9498;51.862;19.460;2023-01-13T12:09:22;5.87;;;3.17;;
18738;SDS011;9498;51.862;19.460;2023-01-13T12:11:57;8.63;;;3.50;;
18738;SDS011;9498;51.862;19.460;2023-01-13T12:14:48;9.33;;;3.53;;
18738;SDS011;9498;51.862;19.460;2023-01-13T12:17:21;7.83;;;3.40;;
18738;SDS011;9498;51.862;19.460;2023-01-13T12:19:52;11.80;;;3.47;;
18738;SDS011;9498;51.862;19.460;2023-01-13T12:22:19;7.07;;;3.13;;
18738;SDS011;9498;51.862;19.460;2023-01-13T12:24:50;9.47;;;3.80;;
18738;SDS011;9498;51.862;19.460;2023-01-13T12:27:20;6.27;;;3.13;;
18738;SDS011;9498;51.862;19.460;2023-01-13T12:29:50;7.47;;;2.90;;
18738;SDS011;9498;51.862;19.460;2023-01-13T12:32:25;10.10;;;3.47;;
18738;SDS011;9498;51.862;19.460;2023-01-13T12:34:58;9.33;;;3.33;;
18738;SDS011;9498;51.862;19.460;2023-01-13T12:37:31;8.60;;;3.30;;
18738;SDS011;9498;51.862;19.460;2023-01-13T12:40:10;10.97;;;3.60;;
18738;SDS011;9498;51.862;19.460;2023-01-13T12:42:44;8.60;;;3.10;;
18738;SDS011;9498;51.862;19.460;2023-01-13T12:45:45;9.87;;;3.70;;
18738;SDS011;9498;51.862;19.460;2023-01-13T12:50:57;13.68;;;4.05;;
18738;SDS011;9498;51.862;19.460;2023-01-13T12:53:27;14.82;;;4.13;;
18738;SDS011;9498;51.862;19.460;2023-01-13T12:58:39;13.07;;;4.10;;
18738;SDS011;9498;51.862;19.460;2023-01-13T13:01:10;12.37;;;4.30;;
18738;SDS011;9498;51.862;19.460;2023-01-13T13:03:37;10.23;;;3.70;;
18738;SDS011;9498;51.862;19.460;2023-01-13T13:06:07;9.83;;;3.77;;
18738;SDS011;9498;51.862;19.460;2023-01-13T13:08:40;8.73;;;3.87;;
18738;SDS011;9498;51.862;19.460;2023-01-13T13:19:53;8.10;;;3.93;;
18738;SDS011;9498;51.862;19.460;2023-01-13T13:28:19;14.03;;;5.23;;
18738;SDS011;9498;51.862;19.460;2023-01-13T13:33:51;9.20;;;3.90;;
18738;SDS011;9498;51.862;19.460;2023-01-13T13:36:28;10.00;;;4.50;;
18738;SDS011;9498;51.862;19.460;2023-01-13T13:39:05;12.10;;;4.87;;
18738;SDS011;9498;51.862;19.460;2023-01-13T13:41:55;7.70;;;3.53;;
18738;SDS011;9498;51.862;19.460;2023-01-13T13:44:44;10.07;;;3.87;;
18738;SDS011;9498;51.862;19.460;2023-01-13T13:47:33;10.07;;;3.67;;
18738;SDS011;9498;51.862;19.460;2023-01-13T13:50:05;8.83;;;3.30;;
18738;SDS011;9498;51.862;19.460;2023-01-13T13:52:35;9.13;;;3.47;;
18738;SDS011;9498;51.862;19.460;2023-01-13T13:55:04;7.87;;;3.37;;
18738;SDS011;9498;51.862;19.460;2023-01-13T13:57:33;7.23;;;3.67;;
18738;SDS011;9498;51.862;19.460;2023-01-13T14:00:05;7.63;;;3.80;;
18738;SDS011;9498;51.862;19.460;2023-01-13T14:02:33;9.60;;;3.33;;
18738;SDS011;9498;51.862;19.460;2023-01-13T14:05:06;9.67;;;3.70;;
18738;SDS011;9498;51.862;19.460;2023-01-13T14:07:42;6.57;;;3.13;;
18738;SDS011;9498;51.862;19.460;2023-01-13T14:10:13;6.17;;;3.07;;
18738;SDS011;9498;51.862;19.460;2023-01-13T14:12:42;10.30;;;3.60;;
18738;SDS011;9498;51.862;19.460;2023-01-13T14:17:51;9.93;;;3.92;;
18738;SDS011;9498;51.862;19.460;2023-01-13T14:20:19;6.33;;;3.43;;
18738;SDS011;9498;51.862;19.460;2023-01-13T14:22:47;9.00;;;3.47;;
18738;SDS011;9498;51.862;19.460;2023-01-13T14:25:32;8.63;;;3.37;;
18738;SDS011;9498;51.862;19.460;2023-01-13T14:28:02;7.67;;;3.27;;
18738;SDS011;9498;51.862;19.460;2023-01-13T14:30:31;8.18;;;3.70;;
18738;SDS011;9498;51.862;19.460;2023-01-13T14:32:58;9.40;;;3.88;;
18738;SDS011;9498;51.862;19.460;2023-01-13T14:35:26;7.68;;;3.60;;
18738;SDS011;9498;51.862;19.460;2023-01-13T14:38:01;8.10;;;3.13;;
18738;SDS011;9498;51.862;19.460;2023-01-13T14:40:38;9.53;;;3.80;;
18738;SDS011;9498;51.862;19.460;2023-01-13T14:43:10;8.83;;;3.77;;
18738;SDS011;9498;51.862;19.460;2023-01-13T14:45:37;12.60;;;4.20;;
18738;SDS011;9498;51.862;19.460;2023-01-13T14:48:06;10.60;;;4.23;;
18738;SDS011;9498;51.862;19.460;2023-01-13T14:50:34;8.77;;;3.63;;
18738;SDS011;9498;51.862;19.460;2023-01-13T14:55:46;13.17;;;4.30;;
18738;SDS011;9498;51.862;19.460;2023-01-13T14:58:20;9.20;;;4.30;;
18738;SDS011;9498;51.862;19.460;2023-01-13T15:00:49;8.90;;;3.87;;
18738;SDS011;9498;51.862;19.460;2023-01-13T15:03:17;8.70;;;4.50;;
18738;SDS011;9498;51.862;19.460;2023-01-13T15:05:45;11.60;;;4.40;;
18738;SDS011;9498;51.862;19.460;2023-01-13T15:11:00;10.67;;;4.30;;
18738;SDS011;9498;51.862;19.460;2023-01-13T15:13:32;14.67;;;4.80;;
18738;SDS011;9498;51.862;19.460;2023-01-13T15:16:02;12.77;;;5.03;;
18738;SDS011;9498;51.862;19.460;2023-01-13T15:18:30;8.37;;;4.20;;
18738;SDS011;9498;51.862;19.460;2023-01-13T15:20:59;11.93;;;4.37;;
18738;SDS011;9498;51.862;19.460;2023-01-13T15:23:27;10.90;;;5.63;;
18738;SDS011;9498;51.862;19.460;2023-01-13T15:25:54;11.03;;;5.47;;
18738;SDS011;9498;51.862;19.460;2023-01-13T15:28:23;17.17;;;6.07;;
18738;SDS011;9498;51.862;19.460;2023-01-13T15:30:51;12.83;;;6.10;;
18738;SDS011;9498;51.862;19.460;2023-01-13T15:33:19;14.43;;;6.00;;